sensor_id;sensor_type;location;lat;lon;timestamp;temperature;humidity
23813;DHT22;12087;45.190;5.688;2023-07-20T00:01:49;24.80;83.30
23813;DHT22;12087;45.190;5.688;2023-07-20T00:07:13;24.80;83.90
23813;DHT22;12087;45.190;5.688;2023-07-20T00:12:35;24.80;85.10
23813;DHT22;12087;45.190;5.688;2023-07-20T00:17:57;24.70;84.50
23813;DHT22;12087;45.190;5.688;2023-07-20T00:23:21;24.70;84.60
23813;DHT22;12087;45.190;5.688;2023-07-20T00:28:43;24.70;84.80
23813;DHT22;12087;45.190;5.688;2023-07-20T00:34:05;24.60;85.20
23813;DHT22;12087;45.190;5.688;2023-07-20T00:39:29;24.60;85.20
23813;DHT22;12087;45.190;5.688;2023-07-20T00:44:51;24.50;85.60
23813;DHT22;12087;45.190;5.688;2023-07-20T00:50:13;24.40;85.90
23813;DHT22;12087;45.190;5.688;2023-07-20T00:55:37;24.40;86.40
23813;DHT22;12087;45.190;5.688;2023-07-20T01:00:59;24.30;87.40
23813;DHT22;12087;45.190;5.688;2023-07-20T01:06:29;24.20;86.50
23813;DHT22;12087;45.190;5.688;2023-07-20T01:11:59;24.10;87.80
23813;DHT22;12087;45.190;5.688;2023-07-20T01:17:24;24.00;87.30
23813;DHT22;12087;45.190;5.688;2023-07-20T01:23:07;23.90;88.70
23813;DHT22;12087;45.190;5.688;2023-07-20T01:34:32;23.80;88.60
23813;DHT22;12087;45.190;5.688;2023-07-20T01:39:55;23.80;89.20
23813;DHT22;12087;45.190;5.688;2023-07-20T01:45:18;23.70;89.70
23813;DHT22;12087;45.190;5.688;2023-07-20T01:50:43;23.60;89.60
23813;DHT22;12087;45.190;5.688;2023-07-20T01:56:05;23.50;89.90
23813;DHT22;12087;45.190;5.688;2023-07-20T02:01:27;23.50;90.10
23813;DHT22;12087;45.190;5.688;2023-07-20T02:06:51;23.50;90.20
23813;DHT22;12087;45.190;5.688;2023-07-20T02:12:14;23.30;90.30
23813;DHT22;12087;45.190;5.688;2023-07-20T02:17:36;23.30;90.30
23813;DHT22;12087;45.190;5.688;2023-07-20T02:23:02;23.30;90.40
23813;DHT22;12087;45.190;5.688;2023-07-20T02:28:24;23.20;90.40
23813;DHT22;12087;45.190;5.688;2023-07-20T02:33:47;23.10;90.50
23813;DHT22;12087;45.190;5.688;2023-07-20T02:39:10;23.10;90.60
23813;DHT22;12087;45.190;5.688;2023-07-20T02:44:33;23.10;90.60
23813;DHT22;12087;45.190;5.688;2023-07-20T02:49:55;23.00;90.50
23813;DHT22;12087;45.190;5.688;2023-07-20T02:55:18;22.90;90.70
23813;DHT22;12087;45.190;5.688;2023-07-20T03:00:42;22.90;90.60
23813;DHT22;12087;45.190;5.688;2023-07-20T03:06:04;22.90;90.80
23813;DHT22;12087;45.190;5.688;2023-07-20T03:11:32;22.80;90.60
23813;DHT22;12087;45.190;5.688;2023-07-20T03:16:54;22.90;90.70
23813;DHT22;12087;45.190;5.688;2023-07-20T03:22:18;22.80;90.70
23813;DHT22;12087;45.190;5.688;2023-07-20T03:27:41;22.70;90.80
23813;DHT22;12087;45.190;5.688;2023-07-20T03:33:03;22.70;90.80
23813;DHT22;12087;45.190;5.688;2023-07-20T03:38:26;22.70;91.00
23813;DHT22;12087;45.190;5.688;2023-07-20T03:43:50;22.70;91.00
23813;DHT22;12087;45.190;5.688;2023-07-20T03:49:12;22.60;91.10
23813;DHT22;12087;45.190;5.688;2023-07-20T03:54:34;22.50;91.10
23813;DHT22;12087;45.190;5.688;2023-07-20T03:59:58;22.50;91.20
23813;DHT22;12087;45.190;5.688;2023-07-20T04:05:20;22.50;91.30
23813;DHT22;12087;45.190;5.688;2023-07-20T04:10:44;22.40;91.60
23813;DHT22;12087;45.190;5.688;2023-07-20T04:16:08;22.30;91.60
23813;DHT22;12087;45.190;5.688;2023-07-20T04:21:30;22.30;91.70
23813;DHT22;12087;45.190;5.688;2023-07-20T04:26:52;22.20;91.70
23813;DHT22;12087;45.190;5.688;2023-07-20T04:32:16;22.20;92.10
23813;DHT22;12087;45.190;5.688;2023-07-20T04:37:38;22.10;91.90
23813;DHT22;12087;45.190;5.688;2023-07-20T04:43:06;22.20;92.20
23813;DHT22;12087;45.190;5.688;2023-07-20T04:48:29;22.20;92.10
23813;DHT22;12087;45.190;5.688;2023-07-20T04:53:52;22.10;92.10
23813;DHT22;12087;45.190;5.688;2023-07-20T04:59:14;22.10;92.30
23813;DHT22;12087;45.190;5.688;2023-07-20T05:04:38;22.20;92.20
23813;DHT22;12087;45.190;5.688;2023-07-20T05:10:00;22.20;92.30
23813;DHT22;12087;45.190;5.688;2023-07-20T05:15:22;22.10;92.40
23813;DHT22;12087;45.190;5.688;2023-07-20T05:20:47;22.10;92.60
23813;DHT22;12087;45.190;5.688;2023-07-20T05:26:09;22.10;92.50
23813;DHT22;12087;45.190;5.688;2023-07-20T05:31:31;22.10;92.60
23813;DHT22;12087;45.190;5.688;2023-07-20T05:36:55;22.10;92.60
23813;DHT22;12087;45.190;5.688;2023-07-20T05:42:17;22.10;92.80
23813;DHT22;12087;45.190;5.688;2023-07-20T05:47:41;22.20;92.80
23813;DHT22;12087;45.190;5.688;2023-07-20T05:53:04;22.40;93.90
23813;DHT22;12087;45.190;5.688;2023-07-20T05:58:27;22.40;93.40
23813;DHT22;12087;45.190;5.688;2023-07-20T06:03:49;22.50;93.60
23813;DHT22;12087;45.190;5.688;2023-07-20T06:09:13;22.60;93.60
23813;DHT22;12087;45.190;5.688;2023-07-20T06:14:35;22.70;94.30
23813;DHT22;12087;45.190;5.688;2023-07-20T06:19:57;22.80;93.90
23813;DHT22;12087;45.190;5.688;2023-07-20T06:25:21;22.90;94.00
23813;DHT22;12087;45.190;5.688;2023-07-20T06:30:43;22.90;93.80
23813;DHT22;12087;45.190;5.688;2023-07-20T06:36:06;23.00;93.60
23813;DHT22;12087;45.190;5.688;2023-07-20T06:41:29;23.10;93.40
23813;DHT22;12087;45.190;5.688;2023-07-20T06:46:51;23.10;94.10
23813;DHT22;12087;45.190;5.688;2023-07-20T06:52:14;23.00;93.30
23813;DHT22;12087;45.190;5.688;2023-07-20T06:57:37;23.00;92.90
23813;DHT22;12087;45.190;5.688;2023-07-20T07:03:01;23.10;93.30
23813;DHT22;12087;45.190;5.688;2023-07-20T07:08:23;23.20;92.70
23813;DHT22;12087;45.190;5.688;2023-07-20T07:13:47;23.10;92.50
23813;DHT22;12087;45.190;5.688;2023-07-20T07:19:11;23.20;92.40
23813;DHT22;12087;45.190;5.688;2023-07-20T07:24:33;23.30;92.60
23813;DHT22;12087;45.190;5.688;2023-07-20T07:29:58;23.30;92.50
23813;DHT22;12087;45.190;5.688;2023-07-20T07:35:20;23.30;92.60
23813;DHT22;12087;45.190;5.688;2023-07-20T07:40:42;23.50;92.80
23813;DHT22;12087;45.190;5.688;2023-07-20T07:46:06;23.60;92.20
23813;DHT22;12087;45.190;5.688;2023-07-20T07:51:28;23.70;93.10
23813;DHT22;12087;45.190;5.688;2023-07-20T07:56:50;23.80;92.60
23813;DHT22;12087;45.190;5.688;2023-07-20T08:02:14;23.80;92.90
23813;DHT22;12087;45.190;5.688;2023-07-20T08:07:37;24.10;92.50
23813;DHT22;12087;45.190;5.688;2023-07-20T08:12:59;24.10;92.30
23813;DHT22;12087;45.190;5.688;2023-07-20T08:18:23;24.20;92.50
23813;DHT22;12087;45.190;5.688;2023-07-20T08:23:45;24.50;92.60
23813;DHT22;12087;45.190;5.688;2023-07-20T08:29:08;24.60;92.40
23813;DHT22;12087;45.190;5.688;2023-07-20T08:34:31;24.90;92.20
23813;DHT22;12087;45.190;5.688;2023-07-20T08:39:53;25.10;92.20
23813;DHT22;12087;45.190;5.688;2023-07-20T08:45:17;25.20;91.60
23813;DHT22;12087;45.190;5.688;2023-07-20T08:50:41;25.40;91.50
23813;DHT22;12087;45.190;5.688;2023-07-20T08:56:05;25.60;91.10
23813;DHT22;12087;45.190;5.688;2023-07-20T09:01:28;25.80;90.90
23813;DHT22;12087;45.190;5.688;2023-07-20T09:06:52;25.90;90.40
23813;DHT22;12087;45.190;5.688;2023-07-20T09:12:15;26.00;89.00
23813;DHT22;12087;45.190;5.688;2023-07-20T09:17:37;26.00;89.30
23813;DHT22;12087;45.190;5.688;2023-07-20T09:23:04;26.40;89.30
23813;DHT22;12087;45.190;5.688;2023-07-20T09:28:27;26.60;88.80
23813;DHT22;12087;45.190;5.688;2023-07-20T09:33:52;26.70;88.70
23813;DHT22;12087;45.190;5.688;2023-07-20T09:39:16;27.00;88.40
23813;DHT22;12087;45.190;5.688;2023-07-20T09:44:39;27.10;87.70
23813;DHT22;12087;45.190;5.688;2023-07-20T09:50:01;27.20;88.10
23813;DHT22;12087;45.190;5.688;2023-07-20T09:55:26;27.40;87.40
23813;DHT22;12087;45.190;5.688;2023-07-20T10:00:51;27.50;86.50
23813;DHT22;12087;45.190;5.688;2023-07-20T10:06:15;27.50;85.90
23813;DHT22;12087;45.190;5.688;2023-07-20T10:11:50;27.60;85.30
23813;DHT22;12087;45.190;5.688;2023-07-20T10:17:13;27.90;85.00
23813;DHT22;12087;45.190;5.688;2023-07-20T10:22:37;28.00;84.60
23813;DHT22;12087;45.190;5.688;2023-07-20T10:28:01;28.30;83.60
23813;DHT22;12087;45.190;5.688;2023-07-20T10:33:24;28.50;82.20
23813;DHT22;12087;45.190;5.688;2023-07-20T10:38:53;28.60;82.50
23813;DHT22;12087;45.190;5.688;2023-07-20T10:44:20;28.70;81.90
23813;DHT22;12087;45.190;5.688;2023-07-20T10:49:58;29.00;80.40
23813;DHT22;12087;45.190;5.688;2023-07-20T10:55:20;29.10;81.50
23813;DHT22;12087;45.190;5.688;2023-07-20T11:01:00;29.40;80.70
23813;DHT22;12087;45.190;5.688;2023-07-20T11:06:32;29.50;79.40
23813;DHT22;12087;45.190;5.688;2023-07-20T11:12:09;29.80;79.40
23813;DHT22;12087;45.190;5.688;2023-07-20T11:17:33;29.80;78.30
23813;DHT22;12087;45.190;5.688;2023-07-20T11:22:57;30.20;79.10
23813;DHT22;12087;45.190;5.688;2023-07-20T11:28:19;30.60;77.10
23813;DHT22;12087;45.190;5.688;2023-07-20T11:33:43;30.80;77.50
23813;DHT22;12087;45.190;5.688;2023-07-20T11:39:08;30.90;76.20
23813;DHT22;12087;45.190;5.688;2023-07-20T11:44:30;31.00;75.60
23813;DHT22;12087;45.190;5.688;2023-07-20T11:49:54;31.10;75.10
23813;DHT22;12087;45.190;5.688;2023-07-20T11:55:16;31.20;75.60
23813;DHT22;12087;45.190;5.688;2023-07-20T12:00:40;31.40;74.10
23813;DHT22;12087;45.190;5.688;2023-07-20T12:06:10;31.30;74.00
23813;DHT22;12087;45.190;5.688;2023-07-20T12:11:34;31.40;74.60
23813;DHT22;12087;45.190;5.688;2023-07-20T12:16:56;31.60;73.60
23813;DHT22;12087;45.190;5.688;2023-07-20T12:22:20;31.90;72.00
23813;DHT22;12087;45.190;5.688;2023-07-20T12:27:44;31.90;71.00
23813;DHT22;12087;45.190;5.688;2023-07-20T12:33:08;31.90;71.70
23813;DHT22;12087;45.190;5.688;2023-07-20T12:38:32;31.90;69.80
23813;DHT22;12087;45.190;5.688;2023-07-20T12:43:54;32.20;71.50
23813;DHT22;12087;45.190;5.688;2023-07-20T12:49:18;32.40;69.70
23813;DHT22;12087;45.190;5.688;2023-07-20T12:54:42;32.50;68.70
23813;DHT22;12087;45.190;5.688;2023-07-20T13:00:06;32.40;68.60
23813;DHT22;12087;45.190;5.688;2023-07-20T13:05:29;32.40;69.10
23813;DHT22;12087;45.190;5.688;2023-07-20T13:10:55;32.50;69.20
23813;DHT22;12087;45.190;5.688;2023-07-20T13:16:17;32.50;68.20
23813;DHT22;12087;45.190;5.688;2023-07-20T13:21:39;32.40;68.80
23813;DHT22;12087;45.190;5.688;2023-07-20T13:27:04;32.60;67.80
23813;DHT22;12087;45.190;5.688;2023-07-20T13:32:26;32.40;67.40
23813;DHT22;12087;45.190;5.688;2023-07-20T13:37:49;32.40;66.60
23813;DHT22;12087;45.190;5.688;2023-07-20T13:43:12;32.40;67.20
23813;DHT22;12087;45.190;5.688;2023-07-20T13:48:35;32.60;66.50
23813;DHT22;12087;45.190;5.688;2023-07-20T13:53:57;32.40;67.30
23813;DHT22;12087;45.190;5.688;2023-07-20T13:59:21;32.60;66.40
23813;DHT22;12087;45.190;5.688;2023-07-20T14:04:43;32.60;66.00
23813;DHT22;12087;45.190;5.688;2023-07-20T14:10:06;32.70;66.40
23813;DHT22;12087;45.190;5.688;2023-07-20T14:15:29;32.70;67.40
23813;DHT22;12087;45.190;5.688;2023-07-20T14:20:52;32.80;67.00
23813;DHT22;12087;45.190;5.688;2023-07-20T14:26:14;32.60;64.90
23813;DHT22;12087;45.190;5.688;2023-07-20T14:31:37;32.60;65.50
23813;DHT22;12087;45.190;5.688;2023-07-20T14:37:00;32.50;64.10
23813;DHT22;12087;45.190;5.688;2023-07-20T14:42:22;32.40;66.70
23813;DHT22;12087;45.190;5.688;2023-07-20T14:47:46;32.20;65.80
23813;DHT22;12087;45.190;5.688;2023-07-20T14:53:14;32.10;64.80
23813;DHT22;12087;45.190;5.688;2023-07-20T14:58:36;32.00;65.20
23813;DHT22;12087;45.190;5.688;2023-07-20T15:04:00;31.80;65.40
23813;DHT22;12087;45.190;5.688;2023-07-20T15:09:22;31.60;66.00
23813;DHT22;12087;45.190;5.688;2023-07-20T15:15:02;31.50;65.80
23813;DHT22;12087;45.190;5.688;2023-07-20T15:20:26;31.40;65.00
23813;DHT22;12087;45.190;5.688;2023-07-20T15:25:49;31.30;66.60
23813;DHT22;12087;45.190;5.688;2023-07-20T15:31:11;31.30;66.90
23813;DHT22;12087;45.190;5.688;2023-07-20T15:36:35;31.20;65.40
23813;DHT22;12087;45.190;5.688;2023-07-20T15:41:57;31.10;64.40
23813;DHT22;12087;45.190;5.688;2023-07-20T15:47:19;31.00;65.60
23813;DHT22;12087;45.190;5.688;2023-07-20T15:52:44;30.90;65.80
23813;DHT22;12087;45.190;5.688;2023-07-20T15:58:06;30.80;66.60
23813;DHT22;12087;45.190;5.688;2023-07-20T16:03:28;30.70;65.80
23813;DHT22;12087;45.190;5.688;2023-07-20T16:08:52;30.70;66.00
23813;DHT22;12087;45.190;5.688;2023-07-20T16:14:21;30.60;66.30
23813;DHT22;12087;45.190;5.688;2023-07-20T16:19:47;30.50;66.00
23813;DHT22;12087;45.190;5.688;2023-07-20T16:25:11;30.40;66.60
23813;DHT22;12087;45.190;5.688;2023-07-20T16:30:33;30.30;64.90
23813;DHT22;12087;45.190;5.688;2023-07-20T16:35:55;30.30;66.20
23813;DHT22;12087;45.190;5.688;2023-07-20T16:41:22;30.20;65.80
23813;DHT22;12087;45.190;5.688;2023-07-20T16:46:45;30.10;65.50
23813;DHT22;12087;45.190;5.688;2023-07-20T16:52:08;30.00;66.30
23813;DHT22;12087;45.190;5.688;2023-07-20T16:57:31;29.90;66.40
23813;DHT22;12087;45.190;5.688;2023-07-20T17:02:53;29.90;66.00
23813;DHT22;12087;45.190;5.688;2023-07-20T17:08:16;29.70;65.50
23813;DHT22;12087;45.190;5.688;2023-07-20T17:13:39;29.60;67.30
23813;DHT22;12087;45.190;5.688;2023-07-20T17:19:02;29.50;66.70
23813;DHT22;12087;45.190;5.688;2023-07-20T17:24:24;29.40;66.90
23813;DHT22;12087;45.190;5.688;2023-07-20T17:29:49;29.30;66.70
23813;DHT22;12087;45.190;5.688;2023-07-20T17:35:11;29.20;66.90
23813;DHT22;12087;45.190;5.688;2023-07-20T17:40:34;29.10;67.00
23813;DHT22;12087;45.190;5.688;2023-07-20T17:45:57;29.00;67.20
23813;DHT22;12087;45.190;5.688;2023-07-20T17:51:20;28.90;67.30
23813;DHT22;12087;45.190;5.688;2023-07-20T17:56:42;28.70;67.10
23813;DHT22;12087;45.190;5.688;2023-07-20T18:02:06;28.70;68.00
23813;DHT22;12087;45.190;5.688;2023-07-20T18:07:29;28.60;67.80
23813;DHT22;12087;45.190;5.688;2023-07-20T18:12:51;28.50;67.80
23813;DHT22;12087;45.190;5.688;2023-07-20T18:18:15;28.30;67.90
23813;DHT22;12087;45.190;5.688;2023-07-20T18:23:37;28.20;68.20
23813;DHT22;12087;45.190;5.688;2023-07-20T18:29:00;28.20;68.80
23813;DHT22;12087;45.190;5.688;2023-07-20T18:34:24;28.10;67.30
23813;DHT22;12087;45.190;5.688;2023-07-20T18:39:46;28.10;68.10
23813;DHT22;12087;45.190;5.688;2023-07-20T18:45:10;28.00;67.30
23813;DHT22;12087;45.190;5.688;2023-07-20T18:50:34;28.00;68.20
23813;DHT22;12087;45.190;5.688;2023-07-20T18:55:56;27.90;68.40
23813;DHT22;12087;45.190;5.688;2023-07-20T19:01:18;27.80;68.60
23813;DHT22;12087;45.190;5.688;2023-07-20T19:06:42;27.80;70.20
23813;DHT22;12087;45.190;5.688;2023-07-20T19:12:05;27.70;69.10
23813;DHT22;12087;45.190;5.688;2023-07-20T19:17:30;27.60;70.20
23813;DHT22;12087;45.190;5.688;2023-07-20T19:22:53;27.50;71.00
23813;DHT22;12087;45.190;5.688;2023-07-20T19:28:15;27.40;71.30
23813;DHT22;12087;45.190;5.688;2023-07-20T19:33:39;27.20;72.70
23813;DHT22;12087;45.190;5.688;2023-07-20T19:39:03;27.10;72.30
23813;DHT22;12087;45.190;5.688;2023-07-20T19:44:25;27.10;72.40
23813;DHT22;12087;45.190;5.688;2023-07-20T19:49:48;26.90;72.50
23813;DHT22;12087;45.190;5.688;2023-07-20T19:55:13;26.90;73.80
23813;DHT22;12087;45.190;5.688;2023-07-20T20:00:38;26.70;73.50
23813;DHT22;12087;45.190;5.688;2023-07-20T20:06:01;26.70;73.70
23813;DHT22;12087;45.190;5.688;2023-07-20T20:11:25;26.50;74.30
23813;DHT22;12087;45.190;5.688;2023-07-20T20:16:47;26.40;74.90
23813;DHT22;12087;45.190;5.688;2023-07-20T20:22:09;26.40;75.80
23813;DHT22;12087;45.190;5.688;2023-07-20T20:27:33;26.30;76.20
23813;DHT22;12087;45.190;5.688;2023-07-20T20:32:55;26.30;75.60
23813;DHT22;12087;45.190;5.688;2023-07-20T20:38:17;26.20;76.50
23813;DHT22;12087;45.190;5.688;2023-07-20T20:43:41;26.20;75.60
23813;DHT22;12087;45.190;5.688;2023-07-20T20:49:04;26.20;76.10
23813;DHT22;12087;45.190;5.688;2023-07-20T20:54:26;26.00;76.70
23813;DHT22;12087;45.190;5.688;2023-07-20T20:59:50;26.00;78.40
23813;DHT22;12087;45.190;5.688;2023-07-20T21:05:12;25.90;78.20
23813;DHT22;12087;45.190;5.688;2023-07-20T21:10:34;25.80;79.00
23813;DHT22;12087;45.190;5.688;2023-07-20T21:15:59;25.60;79.40
23813;DHT22;12087;45.190;5.688;2023-07-20T21:21:22;25.60;78.80
23813;DHT22;12087;45.190;5.688;2023-07-20T21:26:44;25.50;79.00
23813;DHT22;12087;45.190;5.688;2023-07-20T21:32:08;25.50;79.90
23813;DHT22;12087;45.190;5.688;2023-07-20T21:37:30;25.40;80.50
23813;DHT22;12087;45.190;5.688;2023-07-20T21:42:53;25.40;81.70
23813;DHT22;12087;45.190;5.688;2023-07-20T21:48:16;25.20;82.10
23813;DHT22;12087;45.190;5.688;2023-07-20T21:53:39;25.30;83.00
23813;DHT22;12087;45.190;5.688;2023-07-20T21:59:01;25.20;82.90
23813;DHT22;12087;45.190;5.688;2023-07-20T22:04:25;25.00;83.40
23813;DHT22;12087;45.190;5.688;2023-07-20T22:09:48;24.90;85.10
23813;DHT22;12087;45.190;5.688;2023-07-20T22:15:10;24.80;84.40
23813;DHT22;12087;45.190;5.688;2023-07-20T22:20:35;24.70;84.60
23813;DHT22;12087;45.190;5.688;2023-07-20T22:25:57;24.60;85.50
23813;DHT22;12087;45.190;5.688;2023-07-20T22:31:20;24.50;85.50
23813;DHT22;12087;45.190;5.688;2023-07-20T22:36:44;24.40;86.10
23813;DHT22;12087;45.190;5.688;2023-07-20T22:42:09;24.40;86.40
23813;DHT22;12087;45.190;5.688;2023-07-20T22:47:34;24.30;86.70
23813;DHT22;12087;45.190;5.688;2023-07-20T22:52:57;24.20;87.60
23813;DHT22;12087;45.190;5.688;2023-07-20T22:58:20;24.10;88.20
23813;DHT22;12087;45.190;5.688;2023-07-20T23:03:42;24.10;86.90
23813;DHT22;12087;45.190;5.688;2023-07-20T23:09:06;23.90;87.10
23813;DHT22;12087;45.190;5.688;2023-07-20T23:14:29;23.90;87.00
23813;DHT22;12087;45.190;5.688;2023-07-20T23:19:52;23.90;87.10
23813;DHT22;12087;45.190;5.688;2023-07-20T23:25:17;24.10;88.00
23813;DHT22;12087;45.190;5.688;2023-07-20T23:30:44;24.10;87.80
23813;DHT22;12087;45.190;5.688;2023-07-20T23:36:08;24.00;87.70
23813;DHT22;12087;45.190;5.688;2023-07-20T23:41:32;24.10;87.90
23813;DHT22;12087;45.190;5.688;2023-07-20T23:46:56;24.00;87.70
23813;DHT22;12087;45.190;5.688;2023-07-20T23:52:19;24.00;88.10
23813;DHT22;12087;45.190;5.688;2023-07-20T23:57:44;23.90;88.50
